LFBOLICD

Guest
Details From LFBO - Toulouse Blagnac
To LICD - Lampedusa
Flight Number -
Tags Generated
Created
Modified
Stats Distance 714 nm / 1,321 km
Max Altitude 0 ft / 0 m
Waypoints 4
Social Downloads 0
Likes 0
Share VATSIM

Download

Looking for another format? Having issues loading an existing format? Contact us
Advertisement - Login to hide

Notes

Generated

Route

LFBO DOPEL LPD27 LICD

ID Type Via Altitude Latitude Longitude Leg Dist Tot Dist Heading (true) Name
O LFBO APT - 0 ft / 0 m 43.63736˚ 1.35762˚ - 0 nm - -
DOPEL FIX - 0 ft / 0 m 38.52750˚ 8.88361˚ 458 nm 458 nm 129° / 134° -
LPD27 FIX - 0 ft / 0 m 35.49447˚ 12.59062˚ 254 nm 712 nm 135° / 137° -
O LICD APT - 0 ft / 0 m 35.49664˚ 12.60829˚ 0 nm 713 nm 81° / 81° -

Altitude Profile

Advertisement - Login to hide

Weather


0- 5 10 15 20 25 30 35+ Temperature / ° C

Clouds and Precipitation
Forecast for 2018-05-21 18:00 UTC. Updated 3 minutes ago

Ground ~20,000 ft ~40,000 ft Winds

LFBO

Details ICAO LFBO (TLS)
Name Toulouse Blagnac
Region France
Timezone Europe/Paris (UTC+2.0)
Stats Elevation 499 ft / 152 m (AMSL)
Location 43.629026° 1.363969°
Runways 2
Magnetic Variation 0.626° E

METAR

LFBO 211500Z AUTO 11009KT 070V150 CAVOK 24/12 Q1009 TEMPO 4000 SHRA FEW060CB

Decode

TAF

TAF LFBO 211100Z 2112/2218 11007KT CAVOK PROB30 TEMPO 2113/2118 4000 SHRA FEW060CB BECMG 2204/2206 BKN008 BECMG 2208/2210 VRB02KT SCT020 PROB30 TEMPO 2210/2212 SCT025TCU TEMPO 2213/2218 4000 -SHRA SCT040CB

Decode

Departure Runways

ID Width Length Bearing (true) Bearing (mag) Surface Threshold Offset Overrun Length
14L 148 ft / 45 m 9,923 ft / 3,025 m 143.00° 142.37° Asphalt 0 ft / 0 m 0 ft / 0 m
14R 148 ft / 45 m 11,484 ft / 3,500 m 142.99° 142.36° Asphalt 0 ft / 0 m 295 ft / 90 m
32L 148 ft / 45 m 11,484 ft / 3,500 m 323.01° 322.38° Asphalt 0 ft / 0 m 197 ft / 60 m
32R 148 ft / 45 m 9,923 ft / 3,025 m 323.02° 322.39° Asphalt 0 ft / 0 m 0 ft / 0 m

LICD

Details ICAO LICD (LMP)
Name LAMPEDUSA
Region Italy
Timezone Europe/Rome (UTC+2.0)
Stats Elevation 70 ft / 21 m (AMSL)
Location 35.497966° 12.618077°
Runways 1
Magnetic Variation 2.755° E

METAR

LICD 211450Z 12009KT CAVOK 22/19 Q1010

Decode

TAF

TAF LICD 211100Z 2112/2212 06013KT 9999 SCT030

Decode

Destination Runways

ID Width Length Bearing (true) Bearing (mag) Surface Threshold Offset Overrun Length
08 148 ft / 45 m 5,897 ft / 1,797 m 80.57° 77.81° Asphalt 0 ft / 0 m 0 ft / 0 m
26 148 ft / 45 m 5,897 ft / 1,797 m 260.59° 257.83° Asphalt 0 ft / 0 m 0 ft / 0 m

Approach Navaids

Runway Type Ident Frequency Range Bearing (true) Bearing (mag) Slope Elevation
26 Localiser ILMA 111.30 MHz 20 nm / 37 km 260.60° 257.84° - 70 ft / 21 m (AMSL)
26 DME ILMA 111.30 MHz 25 nm / 46 km - - - 70 ft / 21 m (AMSL)